sensor_id;sensor_type;location;lat;lon;timestamp;P1;durP1;ratioP1;P2;durP2;ratioP2
64199;SDS011;50516;52.272;5.136;2023-03-02T00:00:32;49.28;;;30.42;;
64199;SDS011;50516;52.272;5.136;2023-03-02T00:02:58;48.30;;;30.25;;
64199;SDS011;50516;52.272;5.136;2023-03-02T00:05:24;47.33;;;29.58;;
64199;SDS011;50516;52.272;5.136;2023-03-02T00:07:51;53.17;;;32.00;;
64199;SDS011;50516;52.272;5.136;2023-03-02T00:10:18;52.20;;;31.13;;
64199;SDS011;50516;52.272;5.136;2023-03-02T00:12:44;53.42;;;32.08;;
64199;SDS011;50516;52.272;5.136;2023-03-02T00:15:09;54.47;;;31.87;;
64199;SDS011;50516;52.272;5.136;2023-03-02T00:17:35;54.10;;;30.00;;
64199;SDS011;50516;52.272;5.136;2023-03-02T00:20:01;58.40;;;32.47;;
64199;SDS011;50516;52.272;5.136;2023-03-02T00:22:34;58.67;;;32.28;;
64199;SDS011;50516;52.272;5.136;2023-03-02T00:25:00;54.07;;;32.67;;
64199;SDS011;50516;52.272;5.136;2023-03-02T00:27:26;56.88;;;33.47;;
64199;SDS011;50516;52.272;5.136;2023-03-02T00:29:54;59.50;;;32.40;;
64199;SDS011;50516;52.272;5.136;2023-03-02T00:32:19;58.57;;;32.63;;
64199;SDS011;50516;52.272;5.136;2023-03-02T00:34:45;59.78;;;31.88;;
64199;SDS011;50516;52.272;5.136;2023-03-02T00:37:10;61.42;;;33.17;;
64199;SDS011;50516;52.272;5.136;2023-03-02T00:39:36;54.55;;;30.08;;
64199;SDS011;50516;52.272;5.136;2023-03-02T00:42:01;61.67;;;32.42;;
64199;SDS011;50516;52.272;5.136;2023-03-02T00:44:26;58.87;;;33.27;;
64199;SDS011;50516;52.272;5.136;2023-03-02T00:46:52;62.00;;;34.10;;
64199;SDS011;50516;52.272;5.136;2023-03-02T00:49:17;61.30;;;32.63;;
64199;SDS011;50516;52.272;5.136;2023-03-02T00:51:42;58.78;;;32.25;;
64199;SDS011;50516;52.272;5.136;2023-03-02T00:54:08;57.37;;;30.93;;
64199;SDS011;50516;52.272;5.136;2023-03-02T00:56:33;64.45;;;35.20;;
64199;SDS011;50516;52.272;5.136;2023-03-02T00:59:03;58.22;;;32.03;;
64199;SDS011;50516;52.272;5.136;2023-03-02T01:01:29;57.22;;;31.92;;
64199;SDS011;50516;52.272;5.136;2023-03-02T01:03:54;62.28;;;32.65;;
64199;SDS011;50516;52.272;5.136;2023-03-02T01:06:20;58.33;;;31.40;;
64199;SDS011;50516;52.272;5.136;2023-03-02T01:08:45;62.25;;;31.98;;
64199;SDS011;50516;52.272;5.136;2023-03-02T01:11:12;54.00;;;29.87;;
64199;SDS011;50516;52.272;5.136;2023-03-02T01:13:41;57.47;;;29.27;;
64199;SDS011;50516;52.272;5.136;2023-03-02T01:16:07;58.50;;;31.45;;
64199;SDS011;50516;52.272;5.136;2023-03-02T01:18:33;63.30;;;33.15;;
64199;SDS011;50516;52.272;5.136;2023-03-02T01:21:03;61.73;;;32.63;;
64199;SDS011;50516;52.272;5.136;2023-03-02T01:23:30;61.85;;;31.55;;
64199;SDS011;50516;52.272;5.136;2023-03-02T01:25:55;59.25;;;30.70;;
64199;SDS011;50516;52.272;5.136;2023-03-02T01:28:21;56.65;;;32.53;;
64199;SDS011;50516;52.272;5.136;2023-03-02T01:30:46;54.30;;;30.48;;
64199;SDS011;50516;52.272;5.136;2023-03-02T01:33:11;59.93;;;31.37;;
64199;SDS011;50516;52.272;5.136;2023-03-02T01:35:37;54.10;;;30.60;;
64199;SDS011;50516;52.272;5.136;2023-03-02T01:38:02;58.22;;;31.63;;
64199;SDS011;50516;52.272;5.136;2023-03-02T01:40:27;55.07;;;28.80;;
64199;SDS011;50516;52.272;5.136;2023-03-02T01:42:55;56.83;;;30.02;;
64199;SDS011;50516;52.272;5.136;2023-03-02T01:48:10;54.93;;;29.90;;
64199;SDS011;50516;52.272;5.136;2023-03-02T01:50:37;52.90;;;28.97;;
64199;SDS011;50516;52.272;5.136;2023-03-02T01:53:03;57.47;;;31.47;;
64199;SDS011;50516;52.272;5.136;2023-03-02T01:55:30;50.73;;;27.80;;
64199;SDS011;50516;52.272;5.136;2023-03-02T01:57:58;50.70;;;28.77;;
64199;SDS011;50516;52.272;5.136;2023-03-02T02:00:28;53.73;;;29.20;;
64199;SDS011;50516;52.272;5.136;2023-03-02T02:02:59;72.30;;;30.38;;
64199;SDS011;50516;52.272;5.136;2023-03-02T02:05:34;50.17;;;28.27;;
64199;SDS011;50516;52.272;5.136;2023-03-02T02:08:02;51.33;;;30.33;;
64199;SDS011;50516;52.272;5.136;2023-03-02T02:10:28;53.60;;;29.57;;
64199;SDS011;50516;52.272;5.136;2023-03-02T02:12:54;51.17;;;29.10;;
64199;SDS011;50516;52.272;5.136;2023-03-02T02:15:20;51.53;;;28.20;;
64199;SDS011;50516;52.272;5.136;2023-03-02T02:17:46;52.77;;;27.20;;
64199;SDS011;50516;52.272;5.136;2023-03-02T02:33:38;51.40;;;27.40;;
64199;SDS011;50516;52.272;5.136;2023-03-02T02:36:07;56.22;;;30.65;;
64199;SDS011;50516;52.272;5.136;2023-03-02T02:38:38;54.23;;;30.70;;
64199;SDS011;50516;52.272;5.136;2023-03-02T02:41:05;55.73;;;29.40;;
64199;SDS011;50516;52.272;5.136;2023-03-02T02:43:33;50.83;;;27.63;;
64199;SDS011;50516;52.272;5.136;2023-03-02T02:45:58;49.30;;;28.10;;
64199;SDS011;50516;52.272;5.136;2023-03-02T02:48:26;50.73;;;27.00;;
64199;SDS011;50516;52.272;5.136;2023-03-02T02:50:55;48.57;;;27.27;;
64199;SDS011;50516;52.272;5.136;2023-03-02T02:56:12;51.53;;;29.17;;
64199;SDS011;50516;52.272;5.136;2023-03-02T02:58:39;47.40;;;26.40;;
64199;SDS011;50516;52.272;5.136;2023-03-02T03:01:06;53.67;;;29.47;;
64199;SDS011;50516;52.272;5.136;2023-03-02T03:03:34;48.77;;;28.40;;
64199;SDS011;50516;52.272;5.136;2023-03-02T03:06:02;48.87;;;29.57;;
64199;SDS011;50516;52.272;5.136;2023-03-02T03:11:07;48.93;;;27.13;;
64199;SDS011;50516;52.272;5.136;2023-03-02T03:13:33;45.70;;;24.97;;
64199;SDS011;50516;52.272;5.136;2023-03-02T03:16:00;52.17;;;27.03;;
64199;SDS011;50516;52.272;5.136;2023-03-02T03:18:27;50.77;;;27.13;;
64199;SDS011;50516;52.272;5.136;2023-03-02T03:20:56;47.73;;;25.77;;
64199;SDS011;50516;52.272;5.136;2023-03-02T03:23:22;44.67;;;25.40;;
64199;SDS011;50516;52.272;5.136;2023-03-02T03:25:48;50.30;;;27.13;;
64199;SDS011;50516;52.272;5.136;2023-03-02T03:28:13;49.27;;;27.70;;
64199;SDS011;50516;52.272;5.136;2023-03-02T03:30:39;55.97;;;29.77;;
64199;SDS011;50516;52.272;5.136;2023-03-02T03:33:05;50.17;;;27.87;;
64199;SDS011;50516;52.272;5.136;2023-03-02T03:35:30;49.90;;;26.13;;
64199;SDS011;50516;52.272;5.136;2023-03-02T03:37:56;47.53;;;26.00;;
64199;SDS011;50516;52.272;5.136;2023-03-02T03:40:21;45.43;;;25.40;;
64199;SDS011;50516;52.272;5.136;2023-03-02T03:42:46;49.17;;;26.93;;
64199;SDS011;50516;52.272;5.136;2023-03-02T03:45:12;48.93;;;25.60;;
64199;SDS011;50516;52.272;5.136;2023-03-02T03:47:37;49.33;;;25.80;;
64199;SDS011;50516;52.272;5.136;2023-03-02T03:50:03;46.53;;;25.33;;
64199;SDS011;50516;52.272;5.136;2023-03-02T03:52:29;41.70;;;23.97;;
64199;SDS011;50516;52.272;5.136;2023-03-02T03:54:57;45.67;;;25.07;;
64199;SDS011;50516;52.272;5.136;2023-03-02T03:57:25;46.27;;;25.40;;
64199;SDS011;50516;52.272;5.136;2023-03-02T03:59:53;46.47;;;25.03;;
64199;SDS011;50516;52.272;5.136;2023-03-02T04:02:19;49.70;;;27.40;;
64199;SDS011;50516;52.272;5.136;2023-03-02T04:04:44;48.03;;;27.47;;
64199;SDS011;50516;52.272;5.136;2023-03-02T04:07:11;43.03;;;24.97;;
64199;SDS011;50516;52.272;5.136;2023-03-02T04:09:37;47.83;;;25.37;;
64199;SDS011;50516;52.272;5.136;2023-03-02T04:12:03;45.70;;;24.23;;
64199;SDS011;50516;52.272;5.136;2023-03-02T04:14:29;49.13;;;26.83;;
64199;SDS011;50516;52.272;5.136;2023-03-02T04:16:55;44.13;;;24.80;;
64199;SDS011;50516;52.272;5.136;2023-03-02T04:19:21;48.20;;;25.70;;
64199;SDS011;50516;52.272;5.136;2023-03-02T04:21:49;44.00;;;25.27;;
64199;SDS011;50516;52.272;5.136;2023-03-02T04:24:16;45.30;;;25.63;;
64199;SDS011;50516;52.272;5.136;2023-03-02T04:26:44;48.87;;;25.93;;
64199;SDS011;50516;52.272;5.136;2023-03-02T04:29:10;38.80;;;22.13;;
64199;SDS011;50516;52.272;5.136;2023-03-02T04:31:36;44.50;;;23.83;;
64199;SDS011;50516;52.272;5.136;2023-03-02T04:34:02;47.57;;;23.90;;
64199;SDS011;50516;52.272;5.136;2023-03-02T04:36:31;42.73;;;24.77;;
64199;SDS011;50516;52.272;5.136;2023-03-02T04:38:59;42.87;;;24.37;;
64199;SDS011;50516;52.272;5.136;2023-03-02T04:41:25;40.47;;;23.37;;
64199;SDS011;50516;52.272;5.136;2023-03-02T04:43:50;48.07;;;24.57;;
64199;SDS011;50516;52.272;5.136;2023-03-02T04:46:17;45.97;;;22.00;;
64199;SDS011;50516;52.272;5.136;2023-03-02T04:48:45;42.00;;;22.60;;
64199;SDS011;50516;52.272;5.136;2023-03-02T04:51:21;46.17;;;25.23;;
64199;SDS011;50516;52.272;5.136;2023-03-02T04:53:50;39.43;;;24.10;;
64199;SDS011;50516;52.272;5.136;2023-03-02T04:56:19;44.90;;;24.30;;
64199;SDS011;50516;52.272;5.136;2023-03-02T04:58:44;45.87;;;24.43;;
64199;SDS011;50516;52.272;5.136;2023-03-02T05:01:10;42.30;;;24.27;;
64199;SDS011;50516;52.272;5.136;2023-03-02T05:03:37;38.77;;;21.90;;
64199;SDS011;50516;52.272;5.136;2023-03-02T05:06:03;46.50;;;24.73;;
64199;SDS011;50516;52.272;5.136;2023-03-02T05:08:29;43.57;;;23.97;;
64199;SDS011;50516;52.272;5.136;2023-03-02T05:10:54;40.87;;;24.00;;
64199;SDS011;50516;52.272;5.136;2023-03-02T05:13:22;44.43;;;24.70;;
64199;SDS011;50516;52.272;5.136;2023-03-02T05:15:47;45.17;;;23.53;;
64199;SDS011;50516;52.272;5.136;2023-03-02T05:18:14;42.47;;;24.43;;
64199;SDS011;50516;52.272;5.136;2023-03-02T05:20:40;42.07;;;23.67;;
64199;SDS011;50516;52.272;5.136;2023-03-02T05:23:06;43.50;;;24.33;;
64199;SDS011;50516;52.272;5.136;2023-03-02T05:25:34;44.23;;;23.13;;
64199;SDS011;50516;52.272;5.136;2023-03-02T05:28:00;47.80;;;24.13;;
64199;SDS011;50516;52.272;5.136;2023-03-02T05:30:26;45.17;;;23.70;;
64199;SDS011;50516;52.272;5.136;2023-03-02T05:32:52;44.50;;;24.43;;
64199;SDS011;50516;52.272;5.136;2023-03-02T05:35:19;45.17;;;24.50;;
64199;SDS011;50516;52.272;5.136;2023-03-02T05:37:45;45.63;;;24.40;;
64199;SDS011;50516;52.272;5.136;2023-03-02T05:40:12;46.40;;;25.60;;
64199;SDS011;50516;52.272;5.136;2023-03-02T05:42:40;45.97;;;24.27;;
64199;SDS011;50516;52.272;5.136;2023-03-02T05:45:07;49.87;;;26.70;;
64199;SDS011;50516;52.272;5.136;2023-03-02T05:47:33;48.73;;;26.17;;
64199;SDS011;50516;52.272;5.136;2023-03-02T05:49:59;44.90;;;25.67;;
64199;SDS011;50516;52.272;5.136;2023-03-02T05:52:24;43.73;;;24.77;;
64199;SDS011;50516;52.272;5.136;2023-03-02T05:54:50;51.33;;;24.40;;
64199;SDS011;50516;52.272;5.136;2023-03-02T05:57:15;49.73;;;25.47;;
64199;SDS011;50516;52.272;5.136;2023-03-02T05:59:41;50.50;;;24.37;;
64199;SDS011;50516;52.272;5.136;2023-03-02T06:02:06;54.70;;;26.83;;
64199;SDS011;50516;52.272;5.136;2023-03-02T06:04:32;45.23;;;23.43;;
64199;SDS011;50516;52.272;5.136;2023-03-02T06:06:57;45.20;;;24.70;;
64199;SDS011;50516;52.272;5.136;2023-03-02T06:09:23;48.23;;;26.53;;
64199;SDS011;50516;52.272;5.136;2023-03-02T06:11:48;51.17;;;26.37;;
64199;SDS011;50516;52.272;5.136;2023-03-02T06:14:13;51.40;;;26.63;;
64199;SDS011;50516;52.272;5.136;2023-03-02T06:16:39;51.40;;;26.67;;
64199;SDS011;50516;52.272;5.136;2023-03-02T06:19:04;52.63;;;26.23;;
64199;SDS011;50516;52.272;5.136;2023-03-02T06:21:30;52.23;;;26.77;;
64199;SDS011;50516;52.272;5.136;2023-03-02T06:23:55;49.37;;;26.57;;
64199;SDS011;50516;52.272;5.136;2023-03-02T06:26:21;48.83;;;26.80;;
64199;SDS011;50516;52.272;5.136;2023-03-02T06:28:46;53.27;;;26.30;;
64199;SDS011;50516;52.272;5.136;2023-03-02T06:31:11;52.13;;;26.20;;
64199;SDS011;50516;52.272;5.136;2023-03-02T06:33:37;50.00;;;26.57;;
64199;SDS011;50516;52.272;5.136;2023-03-02T06:36:02;52.03;;;26.73;;
64199;SDS011;50516;52.272;5.136;2023-03-02T06:38:28;48.20;;;25.43;;
64199;SDS011;50516;52.272;5.136;2023-03-02T06:40:53;47.37;;;26.13;;
64199;SDS011;50516;52.272;5.136;2023-03-02T06:43:18;46.73;;;25.03;;
64199;SDS011;50516;52.272;5.136;2023-03-02T06:45:43;46.97;;;26.03;;
64199;SDS011;50516;52.272;5.136;2023-03-02T06:48:09;48.40;;;26.10;;
64199;SDS011;50516;52.272;5.136;2023-03-02T06:50:35;48.27;;;26.37;;
64199;SDS011;50516;52.272;5.136;2023-03-02T06:53:00;52.50;;;28.17;;
64199;SDS011;50516;52.272;5.136;2023-03-02T06:55:25;48.60;;;26.73;;
64199;SDS011;50516;52.272;5.136;2023-03-02T06:57:51;49.70;;;25.23;;
64199;SDS011;50516;52.272;5.136;2023-03-02T07:00:17;46.73;;;24.73;;
64199;SDS011;50516;52.272;5.136;2023-03-02T07:02:48;40.90;;;23.47;;
64199;SDS011;50516;52.272;5.136;2023-03-02T07:05:15;47.50;;;24.80;;
64199;SDS011;50516;52.272;5.136;2023-03-02T07:07:41;43.57;;;24.80;;
64199;SDS011;50516;52.272;5.136;2023-03-02T07:10:06;49.70;;;25.27;;
64199;SDS011;50516;52.272;5.136;2023-03-02T07:12:33;45.97;;;25.23;;
64199;SDS011;50516;52.272;5.136;2023-03-02T07:14:58;47.63;;;25.20;;
64199;SDS011;50516;52.272;5.136;2023-03-02T07:17:24;44.03;;;24.10;;
64199;SDS011;50516;52.272;5.136;2023-03-02T07:19:49;48.43;;;25.57;;
64199;SDS011;50516;52.272;5.136;2023-03-02T07:22:14;44.13;;;24.60;;
64199;SDS011;50516;52.272;5.136;2023-03-02T07:24:40;42.33;;;23.73;;
64199;SDS011;50516;52.272;5.136;2023-03-02T07:27:05;54.37;;;24.10;;
64199;SDS011;50516;52.272;5.136;2023-03-02T07:29:30;41.20;;;22.43;;
64199;SDS011;50516;52.272;5.136;2023-03-02T07:31:56;41.93;;;21.20;;
64199;SDS011;50516;52.272;5.136;2023-03-02T07:34:24;41.03;;;22.33;;
64199;SDS011;50516;52.272;5.136;2023-03-02T07:36:50;45.13;;;22.97;;
64199;SDS011;50516;52.272;5.136;2023-03-02T07:39:16;44.50;;;22.93;;
64199;SDS011;50516;52.272;5.136;2023-03-02T07:41:42;43.97;;;22.70;;
64199;SDS011;50516;52.272;5.136;2023-03-02T07:44:08;44.83;;;22.13;;
64199;SDS011;50516;52.272;5.136;2023-03-02T07:46:33;43.37;;;23.33;;
64199;SDS011;50516;52.272;5.136;2023-03-02T07:48:58;35.83;;;21.60;;
64199;SDS011;50516;52.272;5.136;2023-03-02T07:51:24;43.10;;;21.77;;
64199;SDS011;50516;52.272;5.136;2023-03-02T07:53:49;39.53;;;22.17;;
64199;SDS011;50516;52.272;5.136;2023-03-02T07:56:14;42.80;;;23.30;;
64199;SDS011;50516;52.272;5.136;2023-03-02T07:58:40;40.83;;;21.77;;
64199;SDS011;50516;52.272;5.136;2023-03-02T08:01:05;42.25;;;23.58;;
64199;SDS011;50516;52.272;5.136;2023-03-02T08:03:31;39.42;;;22.23;;
64199;SDS011;50516;52.272;5.136;2023-03-02T08:05:56;39.47;;;22.23;;
64199;SDS011;50516;52.272;5.136;2023-03-02T08:08:22;36.40;;;21.02;;
64199;SDS011;50516;52.272;5.136;2023-03-02T08:10:47;44.08;;;23.27;;
64199;SDS011;50516;52.272;5.136;2023-03-02T08:13:13;35.22;;;20.77;;
64199;SDS011;50516;52.272;5.136;2023-03-02T08:15:38;35.92;;;19.50;;
64199;SDS011;50516;52.272;5.136;2023-03-02T08:18:03;36.67;;;20.45;;
64199;SDS011;50516;52.272;5.136;2023-03-02T08:20:29;36.22;;;21.48;;
64199;SDS011;50516;52.272;5.136;2023-03-02T08:22:54;34.22;;;20.85;;
64199;SDS011;50516;52.272;5.136;2023-03-02T08:25:19;38.80;;;21.55;;
64199;SDS011;50516;52.272;5.136;2023-03-02T08:27:45;37.40;;;19.52;;
64199;SDS011;50516;52.272;5.136;2023-03-02T08:30:11;36.75;;;21.20;;
64199;SDS011;50516;52.272;5.136;2023-03-02T08:32:37;36.22;;;20.95;;
64199;SDS011;50516;52.272;5.136;2023-03-02T08:35:03;32.20;;;19.10;;
64199;SDS011;50516;52.272;5.136;2023-03-02T08:37:29;33.75;;;20.55;;
64199;SDS011;50516;52.272;5.136;2023-03-02T08:39:54;31.38;;;19.00;;
64199;SDS011;50516;52.272;5.136;2023-03-02T08:42:19;36.28;;;19.85;;
64199;SDS011;50516;52.272;5.136;2023-03-02T08:44:45;36.53;;;19.90;;
64199;SDS011;50516;52.272;5.136;2023-03-02T08:47:10;32.60;;;18.75;;
64199;SDS011;50516;52.272;5.136;2023-03-02T08:49:35;31.55;;;18.63;;
64199;SDS011;50516;52.272;5.136;2023-03-02T08:52:05;33.75;;;19.35;;
64199;SDS011;50516;52.272;5.136;2023-03-02T08:54:31;32.78;;;19.42;;
64199;SDS011;50516;52.272;5.136;2023-03-02T08:56:58;30.17;;;17.20;;
64199;SDS011;50516;52.272;5.136;2023-03-02T08:59:24;33.28;;;18.77;;
64199;SDS011;50516;52.272;5.136;2023-03-02T09:01:49;35.30;;;20.63;;
64199;SDS011;50516;52.272;5.136;2023-03-02T09:04:15;34.28;;;20.88;;
64199;SDS011;50516;52.272;5.136;2023-03-02T09:06:41;30.08;;;18.30;;
64199;SDS011;50516;52.272;5.136;2023-03-02T09:09:08;33.17;;;19.45;;
64199;SDS011;50516;52.272;5.136;2023-03-02T09:11:34;31.75;;;18.95;;
64199;SDS011;50516;52.272;5.136;2023-03-02T09:14:00;33.03;;;19.08;;
64199;SDS011;50516;52.272;5.136;2023-03-02T09:16:25;31.25;;;17.98;;
64199;SDS011;50516;52.272;5.136;2023-03-02T09:18:51;31.70;;;19.40;;
64199;SDS011;50516;52.272;5.136;2023-03-02T09:21:17;33.35;;;18.25;;
64199;SDS011;50516;52.272;5.136;2023-03-02T09:23:43;29.08;;;15.95;;
64199;SDS011;50516;52.272;5.136;2023-03-02T09:26:09;29.73;;;15.82;;
64199;SDS011;50516;52.272;5.136;2023-03-02T09:28:35;32.28;;;19.83;;
64199;SDS011;50516;52.272;5.136;2023-03-02T09:31:02;30.20;;;18.08;;
64199;SDS011;50516;52.272;5.136;2023-03-02T09:33:30;30.17;;;18.15;;
64199;SDS011;50516;52.272;5.136;2023-03-02T09:35:55;34.95;;;19.90;;
64199;SDS011;50516;52.272;5.136;2023-03-02T09:38:21;33.85;;;20.20;;
64199;SDS011;50516;52.272;5.136;2023-03-02T09:43:36;33.80;;;19.58;;
64199;SDS011;50516;52.272;5.136;2023-03-02T09:46:13;30.35;;;18.88;;
64199;SDS011;50516;52.272;5.136;2023-03-02T09:48:42;34.13;;;20.45;;
64199;SDS011;50516;52.272;5.136;2023-03-02T09:53:56;33.50;;;20.27;;
64199;SDS011;50516;52.272;5.136;2023-03-02T09:56:27;31.42;;;18.25;;
64199;SDS011;50516;52.272;5.136;2023-03-02T09:59:56;35.13;;;19.70;;
64199;SDS011;50516;52.272;5.136;2023-03-02T10:01:58;34.10;;;18.83;;
64199;SDS011;50516;52.272;5.136;2023-03-02T10:07:13;33.65;;;20.00;;
64199;SDS011;50516;52.272;5.136;2023-03-02T10:09:47;32.67;;;19.10;;
64199;SDS011;50516;52.272;5.136;2023-03-02T10:14:46;32.60;;;20.70;;
64199;SDS011;50516;52.272;5.136;2023-03-02T10:26:05;37.45;;;21.23;;
64199;SDS011;50516;52.272;5.136;2023-03-02T10:28:37;28.75;;;16.95;;
64199;SDS011;50516;52.272;5.136;2023-03-02T10:31:26;32.25;;;19.25;;
64199;SDS011;50516;52.272;5.136;2023-03-02T10:33:54;36.55;;;19.48;;
64199;SDS011;50516;52.272;5.136;2023-03-02T10:36:21;32.28;;;19.23;;
64199;SDS011;50516;52.272;5.136;2023-03-02T10:38:51;30.48;;;18.85;;
64199;SDS011;50516;52.272;5.136;2023-03-02T10:41:19;33.92;;;19.80;;
64199;SDS011;50516;52.272;5.136;2023-03-02T10:44:11;33.55;;;19.85;;
64199;SDS011;50516;52.272;5.136;2023-03-02T10:46:44;35.60;;;19.95;;
64199;SDS011;50516;52.272;5.136;2023-03-02T10:52:11;33.95;;;18.80;;
64199;SDS011;50516;52.272;5.136;2023-03-02T10:54:38;30.58;;;19.10;;
64199;SDS011;50516;52.272;5.136;2023-03-02T10:57:13;30.27;;;17.85;;
64199;SDS011;50516;52.272;5.136;2023-03-02T10:59:46;32.45;;;19.45;;
64199;SDS011;50516;52.272;5.136;2023-03-02T11:04:48;33.92;;;19.67;;
64199;SDS011;50516;52.272;5.136;2023-03-02T11:07:34;37.05;;;22.30;;
64199;SDS011;50516;52.272;5.136;2023-03-02T11:10:22;36.28;;;21.35;;
64199;SDS011;50516;52.272;5.136;2023-03-02T11:12:48;36.22;;;21.98;;
64199;SDS011;50516;52.272;5.136;2023-03-02T11:18:04;35.88;;;20.65;;
64199;SDS011;50516;52.272;5.136;2023-03-02T11:20:32;36.53;;;21.45;;
64199;SDS011;50516;52.272;5.136;2023-03-02T11:25:39;32.22;;;19.10;;
64199;SDS011;50516;52.272;5.136;2023-03-02T11:28:21;33.95;;;19.88;;
64199;SDS011;50516;52.272;5.136;2023-03-02T11:30:55;31.67;;;19.13;;
64199;SDS011;50516;52.272;5.136;2023-03-02T11:33:28;36.25;;;18.98;;
64199;SDS011;50516;52.272;5.136;2023-03-02T11:36:08;33.72;;;18.75;;
64199;SDS011;50516;52.272;5.136;2023-03-02T11:38:46;34.42;;;20.40;;
64199;SDS011;50516;52.272;5.136;2023-03-02T11:41:29;32.95;;;19.08;;
64199;SDS011;50516;52.272;5.136;2023-03-02T11:44:00;33.45;;;18.80;;
64199;SDS011;50516;52.272;5.136;2023-03-02T11:46:47;32.95;;;19.67;;
64199;SDS011;50516;52.272;5.136;2023-03-02T11:49:17;32.33;;;19.02;;
64199;SDS011;50516;52.272;5.136;2023-03-02T11:52:04;34.13;;;19.73;;
64199;SDS011;50516;52.272;5.136;2023-03-02T11:57:41;31.40;;;18.98;;
64199;SDS011;50516;52.272;5.136;2023-03-02T12:00:03;35.67;;;20.00;;
64199;SDS011;50516;52.272;5.136;2023-03-02T12:02:34;32.85;;;18.75;;
64199;SDS011;50516;52.272;5.136;2023-03-02T12:05:04;31.20;;;18.88;;
64199;SDS011;50516;52.272;5.136;2023-03-02T12:07:57;33.40;;;18.98;;
64199;SDS011;50516;52.272;5.136;2023-03-02T12:10:25;34.03;;;19.10;;
64199;SDS011;50516;52.272;5.136;2023-03-02T12:12:57;32.88;;;19.63;;
64199;SDS011;50516;52.272;5.136;2023-03-02T12:17:52;30.60;;;18.45;;
64199;SDS011;50516;52.272;5.136;2023-03-02T12:22:51;28.13;;;17.42;;
64199;SDS011;50516;52.272;5.136;2023-03-02T12:27:42;31.75;;;17.58;;
64199;SDS011;50516;52.272;5.136;2023-03-02T12:32:39;28.63;;;17.48;;
64199;SDS011;50516;52.272;5.136;2023-03-02T12:43:37;27.45;;;16.42;;
64199;SDS011;50516;52.272;5.136;2023-03-02T12:49:12;34.08;;;18.30;;
64199;SDS011;50516;52.272;5.136;2023-03-02T12:54:14;29.73;;;18.08;;
64199;SDS011;50516;52.272;5.136;2023-03-02T12:56:41;28.77;;;16.90;;
64199;SDS011;50516;52.272;5.136;2023-03-02T12:59:21;29.70;;;17.95;;
64199;SDS011;50516;52.272;5.136;2023-03-02T13:02:01;27.80;;;16.95;;
64199;SDS011;50516;52.272;5.136;2023-03-02T13:04:30;24.25;;;14.80;;
64199;SDS011;50516;52.272;5.136;2023-03-02T13:06:55;27.35;;;16.13;;
64199;SDS011;50516;52.272;5.136;2023-03-02T13:09:20;25.20;;;15.30;;
64199;SDS011;50516;52.272;5.136;2023-03-02T13:11:47;30.00;;;17.08;;
64199;SDS011;50516;52.272;5.136;2023-03-02T13:14:21;28.23;;;17.27;;
64199;SDS011;50516;52.272;5.136;2023-03-02T13:16:53;25.55;;;14.82;;
64199;SDS011;50516;52.272;5.136;2023-03-02T13:19:19;28.58;;;15.57;;
64199;SDS011;50516;52.272;5.136;2023-03-02T13:21:45;26.98;;;15.25;;
64199;SDS011;50516;52.272;5.136;2023-03-02T13:27:15;27.88;;;15.30;;
64199;SDS011;50516;52.272;5.136;2023-03-02T13:29:46;23.48;;;14.80;;
64199;SDS011;50516;52.272;5.136;2023-03-02T13:32:15;26.85;;;16.65;;
64199;SDS011;50516;52.272;5.136;2023-03-02T13:34:47;30.73;;;18.13;;
64199;SDS011;50516;52.272;5.136;2023-03-02T13:37:38;29.60;;;18.02;;
64199;SDS011;50516;52.272;5.136;2023-03-02T13:42:51;34.53;;;18.92;;
64199;SDS011;50516;52.272;5.136;2023-03-02T13:45:28;35.22;;;19.92;;
64199;SDS011;50516;52.272;5.136;2023-03-02T13:47:55;33.28;;;18.95;;
64199;SDS011;50516;52.272;5.136;2023-03-02T13:50:24;31.25;;;19.10;;
64199;SDS011;50516;52.272;5.136;2023-03-02T13:52:55;26.63;;;17.70;;
64199;SDS011;50516;52.272;5.136;2023-03-02T13:55:24;32.58;;;19.27;;
64199;SDS011;50516;52.272;5.136;2023-03-02T13:57:50;33.95;;;20.15;;
64199;SDS011;50516;52.272;5.136;2023-03-02T14:00:18;34.58;;;21.58;;
64199;SDS011;50516;52.272;5.136;2023-03-02T14:02:52;37.38;;;20.23;;
64199;SDS011;50516;52.272;5.136;2023-03-02T14:05:18;33.97;;;20.70;;
64199;SDS011;50516;52.272;5.136;2023-03-02T14:07:46;34.55;;;20.40;;
64199;SDS011;50516;52.272;5.136;2023-03-02T14:10:13;32.85;;;20.02;;
64199;SDS011;50516;52.272;5.136;2023-03-02T14:12:39;32.58;;;18.77;;
64199;SDS011;50516;52.272;5.136;2023-03-02T14:15:08;36.10;;;19.88;;
64199;SDS011;50516;52.272;5.136;2023-03-02T14:17:37;34.78;;;20.98;;
64199;SDS011;50516;52.272;5.136;2023-03-02T14:20:03;29.77;;;18.50;;
64199;SDS011;50516;52.272;5.136;2023-03-02T14:22:28;34.10;;;20.02;;
64199;SDS011;50516;52.272;5.136;2023-03-02T14:24:55;30.20;;;19.60;;
64199;SDS011;50516;52.272;5.136;2023-03-02T14:27:21;38.15;;;21.42;;
64199;SDS011;50516;52.272;5.136;2023-03-02T14:29:52;34.40;;;21.52;;
64199;SDS011;50516;52.272;5.136;2023-03-02T14:32:17;33.22;;;21.13;;
64199;SDS011;50516;52.272;5.136;2023-03-02T14:34:43;31.58;;;19.88;;
64199;SDS011;50516;52.272;5.136;2023-03-02T14:37:15;31.00;;;20.98;;
64199;SDS011;50516;52.272;5.136;2023-03-02T14:39:46;31.33;;;18.88;;
64199;SDS011;50516;52.272;5.136;2023-03-02T14:42:15;29.80;;;18.65;;
64199;SDS011;50516;52.272;5.136;2023-03-02T14:44:43;36.03;;;20.40;;
64199;SDS011;50516;52.272;5.136;2023-03-02T14:47:10;31.70;;;19.75;;
64199;SDS011;50516;52.272;5.136;2023-03-02T14:49:36;30.67;;;19.25;;
64199;SDS011;50516;52.272;5.136;2023-03-02T14:52:07;31.25;;;19.40;;
64199;SDS011;50516;52.272;5.136;2023-03-02T14:54:40;27.25;;;18.58;;
64199;SDS011;50516;52.272;5.136;2023-03-02T14:57:12;30.65;;;19.50;;
64199;SDS011;50516;52.272;5.136;2023-03-02T14:59:43;33.28;;;19.55;;
64199;SDS011;50516;52.272;5.136;2023-03-02T15:02:09;34.30;;;19.13;;
64199;SDS011;50516;52.272;5.136;2023-03-02T15:04:35;34.58;;;20.10;;
64199;SDS011;50516;52.272;5.136;2023-03-02T15:07:00;29.23;;;20.25;;
64199;SDS011;50516;52.272;5.136;2023-03-02T15:09:26;31.52;;;19.80;;
64199;SDS011;50516;52.272;5.136;2023-03-02T15:11:51;29.65;;;19.95;;
64199;SDS011;50516;52.272;5.136;2023-03-02T15:14:16;31.38;;;20.50;;
64199;SDS011;50516;52.272;5.136;2023-03-02T15:16:42;31.30;;;19.88;;
64199;SDS011;50516;52.272;5.136;2023-03-02T15:19:07;31.65;;;21.17;;
64199;SDS011;50516;52.272;5.136;2023-03-02T15:21:32;30.38;;;19.60;;
64199;SDS011;50516;52.272;5.136;2023-03-02T15:23:58;29.23;;;18.73;;
64199;SDS011;50516;52.272;5.136;2023-03-02T15:26:23;28.50;;;18.38;;
64199;SDS011;50516;52.272;5.136;2023-03-02T15:28:49;28.38;;;18.63;;
64199;SDS011;50516;52.272;5.136;2023-03-02T15:31:16;30.63;;;20.17;;
64199;SDS011;50516;52.272;5.136;2023-03-02T15:33:42;29.30;;;20.35;;
64199;SDS011;50516;52.272;5.136;2023-03-02T15:36:09;32.90;;;19.25;;
64199;SDS011;50516;52.272;5.136;2023-03-02T15:38:35;31.05;;;19.10;;
64199;SDS011;50516;52.272;5.136;2023-03-02T15:41:04;32.90;;;19.50;;
64199;SDS011;50516;52.272;5.136;2023-03-02T15:43:31;30.42;;;20.13;;
64199;SDS011;50516;52.272;5.136;2023-03-02T15:45:57;30.75;;;19.63;;
64199;SDS011;50516;52.272;5.136;2023-03-02T15:48:23;28.85;;;20.13;;